Aflex, Kentucky
Current Conditions -  °F | °C
As of 12:15 PM on Friday 28 Nov 2014 (Local Time) from KPBX Reporting Station
Overcast Overcast  
Wind Chill: -1°   Ceiling: 2900
Heat Index: -1°   Visibility: 10mi
Dew Point: -8°   Wind: 3mph
Humidity: 61%   Direction: 220°SW
Pressure: 30.34"   Gusts: NA
Location:  37.632°N, 82.2603°W
Report Text: KPBX 281715Z AUTO 22003KT 10SM BKN029 OVC070 M01/M08 A3034 RMK AO2 T10141080
Loading
Personal Weather Stations






























Interactive Weather Map New forecast layout! Learn more

10-Day Weather Forecast

Advertisements
Track Severe Weather on mobile